createdAt,value
2022-12-04T00:01:53.341Z,84.24
2022-12-04T00:06:58.808Z,83.82
2022-12-04T00:12:02.359Z,83.51
2022-12-04T00:17:05.399Z,83.47
2022-12-04T00:22:09.941Z,82.83
2022-12-04T00:27:12.915Z,82.65
2022-12-04T00:32:16.086Z,83.06
2022-12-04T00:37:19.161Z,83.52
2022-12-04T00:42:22.184Z,83.70
2022-12-04T00:47:25.194Z,84.05
2022-12-04T00:52:28.729Z,84.09
2022-12-04T00:57:32.641Z,84.07
2022-12-04T01:02:35.672Z,84.07
2022-12-04T01:07:39.047Z,84.27
2022-12-04T01:12:42.096Z,84.14
2022-12-04T01:17:45.681Z,84.05
2022-12-04T01:22:48.692Z,84.01
2022-12-04T01:27:51.670Z,83.93
2022-12-04T01:32:54.644Z,83.80
2022-12-04T01:37:57.630Z,83.98
2022-12-04T01:43:00.879Z,83.95
2022-12-04T01:48:33.264Z,83.56
2022-12-04T01:53:40.335Z,83.44
2022-12-04T01:58:49.103Z,83.60
2022-12-04T02:03:52.154Z,83.72
2022-12-04T02:08:55.290Z,83.65
2022-12-04T02:14:28.127Z,83.73
2022-12-04T02:19:58.879Z,83.99
2022-12-04T02:25:24.226Z,83.78
2022-12-04T02:30:30.608Z,83.43
2022-12-04T02:35:44.852Z,82.87
2022-12-04T02:40:59.405Z,82.69
2022-12-04T02:46:40.148Z,82.53
2022-12-04T02:51:45.312Z,82.12
2022-12-04T02:56:51.136Z,81.61
2022-12-04T03:02:00.328Z,81.72
2022-12-04T03:07:13.133Z,82.29
2022-12-04T03:12:26.246Z,81.94
2022-12-04T03:17:38.242Z,82.38
2022-12-04T03:22:46.316Z,82.71
2022-12-04T03:28:11.055Z,82.57
2022-12-04T03:33:20.722Z,82.35
2022-12-04T03:39:00.419Z,82.73
2022-12-04T03:44:20.528Z,83.39
2022-12-04T03:50:10.066Z,83.58
2022-12-04T03:55:29.771Z,83.35
2022-12-04T04:00:37.020Z,83.01
2022-12-04T04:05:47.997Z,83.38
2022-12-04T04:10:53.762Z,83.18
2022-12-04T04:16:15.797Z,83.27
2022-12-04T04:21:44.234Z,83.57
2022-12-04T04:26:49.850Z,83.58
2022-12-04T04:32:00.588Z,83.35
2022-12-04T04:37:34.483Z,83.21
2022-12-04T04:42:55.063Z,83.23
2022-12-04T04:48:09.483Z,83.18
2022-12-04T04:53:20.617Z,83.12
2022-12-04T04:58:23.601Z,83.24
2022-12-04T05:03:28.497Z,83.38
2022-12-04T05:08:31.472Z,83.64
2022-12-04T05:13:34.431Z,83.81
2022-12-04T05:18:37.958Z,83.74
2022-12-04T05:23:40.949Z,83.98
2022-12-04T05:28:44.017Z,83.82
2022-12-04T05:33:46.991Z,83.87
2022-12-04T05:38:49.986Z,83.78
2022-12-04T05:43:53.009Z,83.97
2022-12-04T05:48:57.553Z,84.12
2022-12-04T05:54:00.595Z,84.19
2022-12-04T05:59:03.904Z,84.01
2022-12-04T06:04:07.363Z,84.00
2022-12-04T06:09:12.113Z,83.77
2022-12-04T06:14:16.148Z,83.66
2022-12-04T06:19:21.107Z,83.56
2022-12-04T06:24:25.203Z,83.20
2022-12-04T06:29:28.300Z,82.75
2022-12-04T06:34:32.601Z,82.78
2022-12-04T06:39:36.374Z,82.94
2022-12-04T06:44:39.461Z,82.98
2022-12-04T06:49:42.518Z,82.91
2022-12-04T06:54:45.524Z,82.97
2022-12-04T06:59:48.541Z,83.03
2022-12-04T07:04:56.554Z,82.98
2022-12-04T07:09:59.566Z,82.88
2022-12-04T07:15:02.595Z,82.73
2022-12-04T07:20:09.634Z,82.41
2022-12-04T07:25:12.669Z,82.39
2022-12-04T07:30:16.247Z,82.36
2022-12-04T07:35:19.419Z,81.98
2022-12-04T07:40:22.458Z,82.03
2022-12-04T07:45:25.462Z,82.04
2022-12-04T07:50:28.426Z,82.22
2022-12-04T07:55:31.455Z,82.22
2022-12-04T08:00:34.451Z,81.89
2022-12-04T08:05:37.438Z,81.86
2022-12-04T08:10:41.339Z,81.79
2022-12-04T08:15:44.415Z,81.67
2022-12-04T08:20:47.477Z,81.79
2022-12-04T08:25:50.524Z,81.66
2022-12-04T08:30:53.761Z,81.81
2022-12-04T08:35:56.831Z,81.71
2022-12-04T08:41:01.794Z,81.46
2022-12-04T08:46:09.795Z,80.95
2022-12-04T08:51:19.589Z,81.08
2022-12-04T08:56:23.730Z,81.05
2022-12-04T09:01:27.941Z,80.75
2022-12-04T09:06:31.104Z,80.90
2022-12-04T09:11:34.114Z,80.98
2022-12-04T09:16:37.144Z,80.78
2022-12-04T09:21:40.159Z,80.74
2022-12-04T09:26:43.345Z,80.76
2022-12-04T09:31:46.413Z,80.94
2022-12-04T09:36:50.191Z,80.70
2022-12-04T09:42:21.923Z,80.84
2022-12-04T09:47:34.420Z,80.81
2022-12-04T09:52:56.308Z,80.80
2022-12-04T09:58:02.736Z,81.01
2022-12-04T10:03:14.431Z,81.25
2022-12-04T10:08:35.647Z,80.98
2022-12-04T10:14:06.571Z,80.84
2022-12-04T10:19:44.531Z,80.97
2022-12-04T10:24:48.663Z,80.60
2022-12-04T10:30:08.066Z,80.57
2022-12-04T10:35:30.732Z,80.50
2022-12-04T10:40:42.981Z,80.59
2022-12-04T10:45:45.993Z,80.60
2022-12-04T10:50:50.331Z,80.44
2022-12-04T10:55:53.295Z,80.18
2022-12-04T11:01:06.162Z,80.19
2022-12-04T11:06:10.599Z,80.21
2022-12-04T11:11:15.641Z,79.83
2022-12-04T11:16:46.340Z,79.65
2022-12-04T11:21:50.394Z,79.76
2022-12-04T11:26:53.985Z,80.12
2022-12-04T11:32:01.446Z,79.97
2022-12-04T11:37:35.882Z,80.07
2022-12-04T11:42:41.168Z,79.65
2022-12-04T11:48:02.416Z,79.71
2022-12-04T11:53:17.456Z,79.90
2022-12-04T11:58:52.690Z,79.81
2022-12-04T12:04:29.294Z,79.82
2022-12-04T12:10:01.864Z,80.02
2022-12-04T12:15:41.715Z,80.29
2022-12-04T12:20:58.055Z,80.11
2022-12-04T12:26:11.041Z,79.82
2022-12-04T12:31:31.718Z,79.94
2022-12-04T12:36:44.053Z,80.10
2022-12-04T12:41:58.601Z,79.96
2022-12-04T12:47:16.640Z,79.68
2022-12-04T12:52:43.794Z,79.43
2022-12-04T12:57:59.122Z,79.43
2022-12-04T13:03:21.395Z,79.51
2022-12-04T13:09:16.683Z,79.34
2022-12-04T13:14:19.846Z,78.75
2022-12-04T13:19:26.836Z,79.04
2022-12-04T13:25:07.608Z,78.75
2022-12-04T13:30:20.300Z,78.98
2022-12-04T13:35:47.654Z,79.00
2022-12-04T13:41:17.093Z,78.94
2022-12-04T13:46:31.991Z,79.35
2022-12-04T13:51:41.501Z,79.30
2022-12-04T13:56:53.885Z,79.32
2022-12-04T14:02:08.149Z,79.28
2022-12-04T14:07:34.581Z,79.65
2022-12-04T14:12:43.313Z,79.76
2022-12-04T14:17:58.339Z,79.51
2022-12-04T14:23:17.991Z,79.49
2022-12-04T14:28:31.539Z,79.58
2022-12-04T14:33:42.942Z,79.38
2022-12-04T14:38:49.316Z,79.71
2022-12-04T14:43:56.209Z,79.73
2022-12-04T14:49:32.997Z,79.66
2022-12-04T14:55:21.466Z,79.93
2022-12-04T15:00:24.955Z,79.85
2022-12-04T15:05:32.149Z,79.84
2022-12-04T15:10:53.981Z,80.09
2022-12-04T15:16:10.219Z,80.19
2022-12-04T15:21:13.269Z,80.36
2022-12-04T15:26:24.718Z,80.37
2022-12-04T15:32:02.203Z,80.30
2022-12-04T15:37:14.046Z,80.21
2022-12-04T15:42:27.671Z,80.62
2022-12-04T15:47:36.985Z,80.53
2022-12-04T15:52:58.617Z,80.26
2022-12-04T15:58:31.631Z,80.02
2022-12-04T16:03:43.929Z,79.93
2022-12-04T16:08:54.259Z,79.59
2022-12-04T16:14:09.442Z,79.54
2022-12-04T16:19:26.542Z,79.79
2022-12-04T16:24:29.719Z,79.69
2022-12-04T16:29:32.676Z,79.65
2022-12-04T16:34:35.723Z,79.85
2022-12-04T16:39:41.819Z,80.12
2022-12-04T16:44:45.577Z,80.33
2022-12-04T16:49:51.279Z,80.54
2022-12-04T16:54:54.674Z,80.43
2022-12-04T16:59:58.101Z,80.50
2022-12-04T17:05:01.735Z,80.56
2022-12-04T17:10:05.825Z,80.49
2022-12-04T17:15:10.963Z,80.54
2022-12-04T17:20:17.718Z,80.43
2022-12-04T17:25:22.689Z,80.18
2022-12-04T17:30:34.319Z,80.01
2022-12-04T17:35:43.731Z,79.97
2022-12-04T17:41:01.763Z,79.96
2022-12-04T17:46:14.869Z,80.14
2022-12-04T17:51:24.624Z,79.60
2022-12-04T17:56:27.680Z,79.31
2022-12-04T18:01:31.657Z,79.58
2022-12-04T18:06:40.382Z,80.18
2022-12-04T18:11:47.124Z,80.17
2022-12-04T18:16:53.488Z,80.32
2022-12-04T18:21:57.253Z,80.52
2022-12-04T18:27:00.238Z,80.20
2022-12-04T18:32:03.355Z,80.26
2022-12-04T18:37:08.737Z,80.30
2022-12-04T18:42:11.759Z,80.25
2022-12-04T18:47:14.732Z,80.33
2022-12-04T18:52:20.591Z,80.39
2022-12-04T18:57:23.561Z,80.34
2022-12-04T19:02:26.902Z,80.49
2022-12-04T19:07:30.138Z,80.60
2022-12-04T19:12:33.153Z,80.68
2022-12-04T19:17:36.123Z,80.35
2022-12-04T19:22:39.203Z,80.48
2022-12-04T19:27:42.282Z,80.56
2022-12-04T19:32:45.257Z,80.64
2022-12-04T19:37:52.732Z,80.76
2022-12-04T19:43:02.763Z,80.66
2022-12-04T19:48:06.242Z,80.79
2022-12-04T19:53:09.243Z,80.72
2022-12-04T19:58:14.677Z,80.13
2022-12-04T20:03:17.716Z,80.12
2022-12-04T20:08:20.715Z,80.02
2022-12-04T20:13:23.706Z,80.07
2022-12-04T20:18:26.688Z,80.29
2022-12-04T20:23:29.981Z,80.34
2022-12-04T20:28:33.139Z,80.19
2022-12-04T20:33:36.183Z,80.16
2022-12-04T20:38:40.133Z,80.19
2022-12-04T20:43:43.979Z,80.11
2022-12-04T20:48:48.944Z,79.96
2022-12-04T20:53:53.830Z,80.17
2022-12-04T20:59:05.233Z,80.00
2022-12-04T21:04:09.166Z,79.95
2022-12-04T21:09:14.021Z,79.82
2022-12-04T21:14:42.363Z,79.55
2022-12-04T21:19:51.102Z,79.68
2022-12-04T21:24:57.027Z,79.07
2022-12-04T21:30:00.261Z,78.92
2022-12-04T21:35:09.772Z,79.07
2022-12-04T21:40:13.387Z,78.97
2022-12-04T21:45:19.256Z,79.08
2022-12-04T21:50:22.284Z,78.91
2022-12-04T21:55:25.282Z,78.53
2022-12-04T22:00:28.271Z,78.88
2022-12-04T22:05:37.445Z,78.86
2022-12-04T22:10:46.173Z,79.17
2022-12-04T22:15:49.205Z,79.37
2022-12-04T22:20:52.394Z,79.33
2022-12-04T22:25:55.374Z,79.39
2022-12-04T22:31:11.869Z,79.54
2022-12-04T22:36:19.034Z,79.72
2022-12-04T22:41:39.389Z,79.15
2022-12-04T22:46:45.569Z,78.80
2022-12-04T22:51:51.571Z,78.92
2022-12-04T22:56:57.229Z,79.13
2022-12-04T23:02:00.811Z,78.91
2022-12-04T23:07:04.980Z,79.34
2022-12-04T23:12:12.023Z,79.34
2022-12-04T23:17:18.294Z,79.22
2022-12-04T23:22:25.117Z,79.03
2022-12-04T23:27:31.648Z,78.44
2022-12-04T23:32:34.671Z,78.66
2022-12-04T23:37:37.778Z,78.85
2022-12-04T23:42:44.178Z,78.68
2022-12-04T23:47:47.872Z,78.80
2022-12-04T23:52:50.979Z,78.79
2022-12-04T23:57:55.550Z,78.79
